createdAt,value
2023-02-14T00:02:30.765Z,9.60
2023-02-14T00:05:35.379Z,10.30
2023-02-14T00:08:44.316Z,9.90
2023-02-14T00:11:49.562Z,10.45
2023-02-14T00:15:12.810Z,10.65
2023-02-14T00:18:19.634Z,9.55
2023-02-14T00:21:24.182Z,9.73
2023-02-14T00:24:29.033Z,9.45
2023-02-14T00:27:33.822Z,9.63
2023-02-14T00:30:39.921Z,9.43
2023-02-14T00:33:44.378Z,10.23
2023-02-14T00:36:49.273Z,10.23
2023-02-14T00:39:54.585Z,9.50
2023-02-14T00:42:59.533Z,10.60
2023-02-14T00:46:04.115Z,10.07
2023-02-14T00:49:08.865Z,9.05
2023-02-14T00:52:15.694Z,9.73
2023-02-14T00:55:19.954Z,9.38
2023-02-14T00:58:24.996Z,9.10
2023-02-14T01:01:29.927Z,9.68
2023-02-14T01:04:34.925Z,8.70
2023-02-14T01:07:39.804Z,9.40
2023-02-14T01:10:44.503Z,8.30
2023-02-14T01:13:50.647Z,9.13
2023-02-14T01:16:55.316Z,9.05
2023-02-14T01:20:02.427Z,8.43
2023-02-14T01:23:08.213Z,9.43
2023-02-14T01:26:14.130Z,10.02
2023-02-14T01:29:19.169Z,8.77
2023-02-14T01:32:23.829Z,10.35
2023-02-14T01:35:28.496Z,9.85
2023-02-14T01:38:33.032Z,9.63
2023-02-14T01:41:39.635Z,9.45
2023-02-14T01:44:50.241Z,9.23
2023-02-14T01:47:58.636Z,9.65
2023-02-14T01:51:03.372Z,10.05
2023-02-14T01:54:09.512Z,9.75
2023-02-14T01:57:18.610Z,9.82
2023-02-14T02:00:42.805Z,10.25
2023-02-14T02:03:53.686Z,10.60
2023-02-14T02:07:03.092Z,10.30
2023-02-14T02:10:09.295Z,9.73
2023-02-14T02:13:22.066Z,10.30
2023-02-14T02:16:47.032Z,9.27
2023-02-14T02:20:36.136Z,9.88
2023-02-14T02:24:20.991Z,9.18
2023-02-14T02:27:56.172Z,10.00
2023-02-14T02:31:31.654Z,9.02
2023-02-14T02:35:07.037Z,9.85
2023-02-14T02:38:45.541Z,8.93
2023-02-14T02:42:35.865Z,9.10
2023-02-14T02:46:22.166Z,8.93
2023-02-14T02:50:07.729Z,9.15
2023-02-14T02:53:26.046Z,9.13
2023-02-14T02:56:59.255Z,9.13
2023-02-14T03:00:09.699Z,9.73
2023-02-14T03:03:33.374Z,9.18
2023-02-14T03:06:37.734Z,10.82
2023-02-14T03:09:42.234Z,8.30
2023-02-14T03:13:13.133Z,9.18
2023-02-14T03:17:10.505Z,9.95
2023-02-14T03:20:34.186Z,9.43
2023-02-14T03:24:11.452Z,8.50
2023-02-14T03:27:30.606Z,8.48
2023-02-14T03:30:46.551Z,9.13
2023-02-14T03:34:06.635Z,8.52
2023-02-14T03:37:23.158Z,8.48
2023-02-14T03:40:37.959Z,9.55
2023-02-14T03:43:47.325Z,8.35
2023-02-14T03:46:58.685Z,9.43
2023-02-14T03:50:14.645Z,9.45
2023-02-14T03:53:25.716Z,8.80
2023-02-14T03:56:42.219Z,9.18
2023-02-14T03:59:48.283Z,9.55
2023-02-14T04:03:03.718Z,9.70
2023-02-14T04:06:09.001Z,9.18
2023-02-14T04:09:13.713Z,8.38
2023-02-14T04:12:32.330Z,9.60
2023-02-14T04:15:40.731Z,8.93
2023-02-14T04:19:03.812Z,8.77
2023-02-14T04:22:08.075Z,9.05
2023-02-14T04:25:13.328Z,9.07
2023-02-14T04:28:18.154Z,8.90
2023-02-14T04:31:23.328Z,9.57
2023-02-14T04:34:27.871Z,8.50
2023-02-14T04:37:32.664Z,9.13
2023-02-14T04:40:37.186Z,8.68
2023-02-14T04:43:41.610Z,9.70
2023-02-14T04:46:46.728Z,9.13
2023-02-14T04:49:51.471Z,8.88
2023-02-14T04:52:56.423Z,9.13
2023-02-14T04:56:01.207Z,9.13
2023-02-14T04:59:06.015Z,10.40
2023-02-14T05:02:10.580Z,9.55
2023-02-14T05:05:15.453Z,9.73
2023-02-14T05:08:20.346Z,9.13
2023-02-14T05:11:24.942Z,8.98
2023-02-14T05:14:29.689Z,9.52
2023-02-14T05:17:34.149Z,9.20
2023-02-14T05:20:38.899Z,8.95
2023-02-14T05:23:44.640Z,9.43
2023-02-14T05:26:49.114Z,8.65
2023-02-14T05:29:53.870Z,9.00
2023-02-14T05:32:58.707Z,9.50
2023-02-14T05:36:03.721Z,9.93
2023-02-14T05:39:08.212Z,9.02
2023-02-14T05:42:12.606Z,10.38
2023-02-14T05:45:17.671Z,9.35
2023-02-14T05:48:22.916Z,10.35
2023-02-14T05:51:27.240Z,9.88
2023-02-14T05:54:32.079Z,10.20
2023-02-14T05:57:37.453Z,9.60
2023-02-14T06:00:42.787Z,8.68
2023-02-14T06:03:47.606Z,9.23
2023-02-14T06:06:52.280Z,9.43
2023-02-14T06:09:56.839Z,8.57
2023-02-14T06:13:01.609Z,8.43
2023-02-14T06:16:06.588Z,8.52
2023-02-14T06:19:11.634Z,8.88
2023-02-14T06:22:16.253Z,9.52
2023-02-14T06:25:22.915Z,9.93
2023-02-14T06:28:27.544Z,9.02
2023-02-14T06:31:32.404Z,9.38
2023-02-14T06:34:37.454Z,8.73
2023-02-14T06:37:42.445Z,9.57
2023-02-14T06:40:47.125Z,9.35
2023-02-14T06:43:51.679Z,9.00
2023-02-14T06:46:56.250Z,8.02
2023-02-14T06:50:01.605Z,9.77
2023-02-14T06:53:06.403Z,8.73
2023-02-14T06:56:11.085Z,9.00
2023-02-14T06:59:15.731Z,8.90
2023-02-14T07:02:22.846Z,9.10
2023-02-14T07:05:28.784Z,9.63
2023-02-14T07:08:33.326Z,9.20
2023-02-14T07:11:37.996Z,9.38
2023-02-14T07:14:42.833Z,8.63
2023-02-14T07:17:47.571Z,8.30
2023-02-14T07:20:52.524Z,8.45
2023-02-14T07:23:57.177Z,9.48
2023-02-14T07:27:01.742Z,9.63
2023-02-14T07:30:08.745Z,8.68
2023-02-14T07:33:13.033Z,9.48
2023-02-14T07:36:18.443Z,8.77
2023-02-14T07:39:23.202Z,9.20
2023-02-14T07:42:28.270Z,9.88
2023-02-14T07:45:32.619Z,9.73
2023-02-14T07:48:39.234Z,8.90
2023-02-14T07:51:44.014Z,9.75
2023-02-14T07:54:48.991Z,9.50
2023-02-14T07:57:53.866Z,9.05
2023-02-14T08:00:58.892Z,10.15
2023-02-14T08:04:04.298Z,10.07
2023-02-14T08:07:09.058Z,9.65
2023-02-14T08:10:13.611Z,9.80
2023-02-14T08:13:18.559Z,10.23
2023-02-14T08:16:23.380Z,9.95
2023-02-14T08:19:28.558Z,10.20
2023-02-14T08:22:33.271Z,9.32
2023-02-14T08:25:38.399Z,10.32
2023-02-14T08:28:44.139Z,10.63
2023-02-14T08:31:49.189Z,9.40
2023-02-14T08:34:54.171Z,9.80
2023-02-14T08:37:59.289Z,8.73
2023-02-14T08:41:08.319Z,9.00
2023-02-14T08:44:13.687Z,8.40
2023-02-14T08:47:18.537Z,8.68
2023-02-14T08:50:23.714Z,8.07
2023-02-14T08:53:28.423Z,9.05
2023-02-14T08:56:33.320Z,8.48
2023-02-14T08:59:38.030Z,8.57
2023-02-14T09:02:42.638Z,7.95
2023-02-14T09:05:47.919Z,7.95
2023-02-14T09:08:55.033Z,8.43
2023-02-14T09:12:05.041Z,7.38
2023-02-14T09:15:10.804Z,7.88
2023-02-14T09:18:16.284Z,7.82
2023-02-14T09:21:27.822Z,8.75
2023-02-14T09:24:34.642Z,7.72
2023-02-14T09:27:39.947Z,8.48
2023-02-14T09:30:44.678Z,7.90
2023-02-14T09:33:50.845Z,8.45
2023-02-14T09:36:55.309Z,7.75
2023-02-14T09:39:59.928Z,8.10
2023-02-14T09:43:30.800Z,7.93
2023-02-14T09:46:50.302Z,8.20
2023-02-14T09:49:55.737Z,8.15
2023-02-14T09:53:08.187Z,7.97
2023-02-14T09:56:42.702Z,8.15
2023-02-14T10:00:06.755Z,7.50
2023-02-14T10:03:35.299Z,8.02
2023-02-14T10:06:58.697Z,9.30
2023-02-14T10:10:45.435Z,9.25
2023-02-14T10:13:56.603Z,9.98
2023-02-14T10:17:16.885Z,9.15
2023-02-14T10:20:41.295Z,8.60
2023-02-14T10:30:24.439Z,8.32
2023-02-14T10:33:33.319Z,8.98
2023-02-14T10:37:32.172Z,8.18
2023-02-14T10:41:16.052Z,8.30
2023-02-14T10:44:41.025Z,8.98
2023-02-14T10:47:57.495Z,8.15
2023-02-14T10:51:23.241Z,8.27
2023-02-14T10:54:41.658Z,7.95
2023-02-14T10:57:53.367Z,7.68
2023-02-14T11:01:13.416Z,7.97
2023-02-14T11:04:22.076Z,7.43
2023-02-14T11:07:27.114Z,7.53
2023-02-14T11:10:34.245Z,7.75
2023-02-14T11:13:40.459Z,8.27
2023-02-14T11:16:45.471Z,7.50
2023-02-14T11:20:06.296Z,7.88
2023-02-14T11:23:24.855Z,8.30
2023-02-14T11:26:35.145Z,7.60
2023-02-14T11:29:52.230Z,7.43
2023-02-14T11:32:57.241Z,7.68
2023-02-14T11:36:05.236Z,6.78
2023-02-14T11:39:22.164Z,7.15
2023-02-14T11:42:38.922Z,7.47
2023-02-14T11:45:47.562Z,6.72
2023-02-14T11:48:57.635Z,7.60
2023-02-14T11:52:17.371Z,8.90
2023-02-14T11:55:33.686Z,8.90
2023-02-14T11:59:04.496Z,8.70
2023-02-14T12:02:28.129Z,8.00
2023-02-14T12:05:45.650Z,8.35
2023-02-14T12:08:50.325Z,8.45
2023-02-14T12:12:36.131Z,8.70
2023-02-14T12:15:54.108Z,8.35
2023-02-14T12:19:08.440Z,7.88
2023-02-14T12:23:17.359Z,8.50
2023-02-14T12:26:34.246Z,8.48
2023-02-14T12:30:34.420Z,8.82
2023-02-14T12:33:40.656Z,11.80
2023-02-14T12:36:57.448Z,9.35
2023-02-14T12:40:36.624Z,8.82
2023-02-14T12:43:53.061Z,8.43
2023-02-14T12:47:14.695Z,10.05
2023-02-14T12:50:42.021Z,9.85
2023-02-14T12:54:13.020Z,10.50
2023-02-14T12:57:32.966Z,10.10
2023-02-14T13:01:05.413Z,9.02
2023-02-14T13:04:58.062Z,9.05
2023-02-14T13:08:40.364Z,8.77
2023-02-14T13:12:03.548Z,9.85
2023-02-14T13:16:07.661Z,8.80
2023-02-14T13:20:12.196Z,9.93
2023-02-14T13:23:40.236Z,12.07
2023-02-14T13:26:49.632Z,11.30
2023-02-14T13:30:21.616Z,12.88
2023-02-14T13:34:22.430Z,10.85
2023-02-14T13:37:29.569Z,9.88
2023-02-14T13:40:35.451Z,8.73
2023-02-14T13:43:48.689Z,9.13
2023-02-14T13:46:53.472Z,10.07
2023-02-14T13:50:03.549Z,11.00
2023-02-14T13:53:29.342Z,11.82
2023-02-14T13:56:34.932Z,11.02
2023-02-14T13:59:39.540Z,9.65
2023-02-14T14:02:50.789Z,11.18
2023-02-14T14:06:11.550Z,11.63
2023-02-14T14:09:41.708Z,13.15
2023-02-14T14:12:46.545Z,13.70
2023-02-14T14:16:29.432Z,14.88
2023-02-14T14:19:38.032Z,12.65
2023-02-14T14:22:58.541Z,11.48
2023-02-14T14:26:25.075Z,12.40
2023-02-14T14:29:35.591Z,13.43
2023-02-14T14:32:40.180Z,15.18
2023-02-14T14:36:08.324Z,14.07
2023-02-14T14:39:29.092Z,13.73
2023-02-14T14:42:40.747Z,13.05
2023-02-14T14:45:51.527Z,13.68
2023-02-14T14:48:57.079Z,12.20
2023-02-14T14:52:01.573Z,14.90
2023-02-14T14:55:09.260Z,14.23
2023-02-14T14:58:41.839Z,14.50
2023-02-14T15:01:47.171Z,14.45
2023-02-14T15:04:52.716Z,14.85
2023-02-14T15:07:57.836Z,14.15
2023-02-14T15:11:41.360Z,13.25
2023-02-14T15:14:54.633Z,12.43
2023-02-14T15:17:59.266Z,12.93
2023-02-14T15:21:06.258Z,13.93
2023-02-14T15:24:16.053Z,13.00
2023-02-14T15:27:23.686Z,14.13
2023-02-14T15:30:37.825Z,14.73
2023-02-14T15:33:43.021Z,14.98
2023-02-14T15:36:52.125Z,15.10
2023-02-14T15:39:57.412Z,13.13
2023-02-14T15:43:15.889Z,11.98
2023-02-14T15:46:37.427Z,13.95
2023-02-14T15:49:46.626Z,13.77
2023-02-14T15:52:56.427Z,13.20
2023-02-14T15:56:11.065Z,11.82
2023-02-14T15:59:22.639Z,12.07
2023-02-14T16:02:38.886Z,11.30
2023-02-14T16:05:47.907Z,11.60
2023-02-14T16:08:55.776Z,11.48
2023-02-14T16:12:13.627Z,10.90
2023-02-14T16:15:28.878Z,10.52
2023-02-14T16:18:35.593Z,11.32
2023-02-14T16:21:54.697Z,11.73
2023-02-14T16:25:00.441Z,11.43
2023-02-14T16:28:05.096Z,11.50
2023-02-14T16:31:16.397Z,11.73
2023-02-14T16:34:21.516Z,11.50
2023-02-14T16:37:33.239Z,11.07
2023-02-14T16:40:37.939Z,11.05
2023-02-14T16:43:42.514Z,10.32
2023-02-14T16:46:47.339Z,11.98
2023-02-14T16:49:53.175Z,11.82
2023-02-14T16:52:58.404Z,11.18
2023-02-14T16:56:03.021Z,10.57
2023-02-14T16:59:07.719Z,10.93
2023-02-14T17:02:14.027Z,11.93
2023-02-14T17:05:19.348Z,11.90
2023-02-14T17:08:24.850Z,11.65
2023-02-14T17:11:32.053Z,11.82
2023-02-14T17:14:38.776Z,11.98
2023-02-14T17:17:45.369Z,12.25
2023-02-14T17:20:49.982Z,11.68
2023-02-14T17:23:55.621Z,12.85
2023-02-14T17:27:00.063Z,12.32
2023-02-14T17:30:05.487Z,12.55
2023-02-14T17:33:10.170Z,11.80
2023-02-14T17:36:15.141Z,12.18
2023-02-14T17:39:20.347Z,12.45
2023-02-14T17:42:25.067Z,11.55
2023-02-14T17:45:29.794Z,11.35
2023-02-14T17:48:34.887Z,11.48
2023-02-14T17:51:39.400Z,12.18
2023-02-14T17:54:44.676Z,12.00
2023-02-14T17:57:52.460Z,11.90
2023-02-14T18:01:09.742Z,12.32
2023-02-14T18:04:14.398Z,11.55
2023-02-14T18:07:18.866Z,12.70
2023-02-14T18:10:23.561Z,11.40
2023-02-14T18:13:28.635Z,12.40
2023-02-14T18:16:34.077Z,12.48
2023-02-14T18:19:39.004Z,13.30
2023-02-14T18:22:43.484Z,13.38
2023-02-14T18:25:55.599Z,13.70
2023-02-14T18:29:06.443Z,12.40
2023-02-14T18:32:11.469Z,11.40
2023-02-14T18:35:16.334Z,13.30
2023-02-14T18:38:21.103Z,13.02
2023-02-14T18:41:27.174Z,12.65
2023-02-14T18:44:33.434Z,13.48
2023-02-14T18:47:38.118Z,12.13
2023-02-14T18:50:43.033Z,12.57
2023-02-14T18:53:50.719Z,12.68
2023-02-14T18:56:55.722Z,11.45
2023-02-14T19:00:01.633Z,12.30
2023-02-14T19:03:07.645Z,12.90
2023-02-14T19:06:13.016Z,13.73
2023-02-14T19:09:18.709Z,12.90
2023-02-14T19:12:24.674Z,12.65
2023-02-14T19:15:29.508Z,14.02
2023-02-14T19:18:34.181Z,13.82
2023-02-14T19:21:38.977Z,13.02
2023-02-14T19:24:43.528Z,12.88
2023-02-14T19:27:48.662Z,12.32
2023-02-14T19:30:53.268Z,12.40
2023-02-14T19:33:58.176Z,13.35
2023-02-14T19:37:03.000Z,12.48
2023-02-14T19:40:10.373Z,12.73
2023-02-14T19:43:14.919Z,12.23
2023-02-14T19:46:21.486Z,11.75
2023-02-14T19:49:28.170Z,12.18
2023-02-14T19:52:32.469Z,13.27
2023-02-14T19:55:37.030Z,12.40
2023-02-14T19:58:41.698Z,11.65
2023-02-14T20:01:50.213Z,12.80
2023-02-14T20:04:58.913Z,12.57
2023-02-14T20:08:03.639Z,12.00
2023-02-14T20:11:50.509Z,12.23
2023-02-14T20:14:56.565Z,11.98
2023-02-14T20:18:02.246Z,13.50
2023-02-14T20:21:07.612Z,12.88
2023-02-14T20:24:18.658Z,12.32
2023-02-14T20:27:25.579Z,12.45
2023-02-14T20:30:30.682Z,11.27
2023-02-14T20:33:35.327Z,13.23
2023-02-14T20:36:41.253Z,11.60
2023-02-14T20:39:45.951Z,12.23
2023-02-14T20:42:50.586Z,12.40
2023-02-14T20:46:00.200Z,12.63
2023-02-14T20:49:05.497Z,12.13
2023-02-14T20:52:09.791Z,12.38
2023-02-14T20:55:14.116Z,12.20
2023-02-14T20:58:20.040Z,12.48
2023-02-14T21:01:25.285Z,13.38
2023-02-14T21:04:31.036Z,11.63
2023-02-14T21:07:35.543Z,12.73
2023-02-14T21:10:40.216Z,13.73
2023-02-14T21:13:44.967Z,13.55
2023-02-14T21:16:49.537Z,13.88
2023-02-14T21:19:54.249Z,12.70
2023-02-14T21:22:59.016Z,12.90
2023-02-14T21:26:04.116Z,14.90
2023-02-14T21:29:09.774Z,14.95
2023-02-14T21:32:14.984Z,14.90
2023-02-14T21:35:19.791Z,15.60
2023-02-14T21:38:24.791Z,16.13
2023-02-14T21:41:31.176Z,14.93
2023-02-14T21:45:05.606Z,14.18
2023-02-14T21:48:29.084Z,13.68
2023-02-14T21:51:33.675Z,12.98
2023-02-14T21:54:38.190Z,12.93
2023-02-14T21:57:42.893Z,13.20
2023-02-14T22:00:48.132Z,13.80
2023-02-14T22:03:54.519Z,13.70
2023-02-14T22:06:59.436Z,14.38
2023-02-14T22:10:04.775Z,13.70
2023-02-14T22:13:09.131Z,15.43
2023-02-14T22:16:17.253Z,14.43
2023-02-14T22:19:21.971Z,13.23
2023-02-14T22:22:26.891Z,12.73
2023-02-14T22:25:31.726Z,14.48
2023-02-14T22:28:36.599Z,13.13
2023-02-14T22:31:43.512Z,13.13
2023-02-14T22:34:48.400Z,12.95
2023-02-14T22:37:53.012Z,13.52
2023-02-14T22:40:57.885Z,12.45
2023-02-14T22:44:02.797Z,13.60
2023-02-14T22:47:07.889Z,13.07
2023-02-14T22:50:12.759Z,13.48
2023-02-14T22:53:17.562Z,12.60
2023-02-14T22:56:27.686Z,12.60
2023-02-14T22:59:33.441Z,14.18
2023-02-14T23:02:38.636Z,12.93
2023-02-14T23:05:42.867Z,12.98
2023-02-14T23:08:48.120Z,15.00
2023-02-14T23:11:52.755Z,13.93
2023-02-14T23:15:15.798Z,14.57
2023-02-14T23:18:38.650Z,15.07
2023-02-14T23:21:54.871Z,15.13
2023-02-14T23:25:04.273Z,14.73
2023-02-14T23:28:09.342Z,14.48
2023-02-14T23:31:13.849Z,14.65
2023-02-14T23:34:19.140Z,16.90
2023-02-14T23:37:24.408Z,14.50
2023-02-14T23:40:29.545Z,15.57
2023-02-14T23:43:34.190Z,15.90
2023-02-14T23:46:38.878Z,16.00
2023-02-14T23:49:43.718Z,14.40
2023-02-14T23:52:48.074Z,14.18
2023-02-14T23:55:52.718Z,14.32
2023-02-14T23:58:57.639Z,16.80
